Time;durP1;ratioP1;P1;durP2;ratioP2;P2;SDS_P1;SDS_P2;PMS_P1;PMS_P2;Temp;Humidity;BMP_temperature;BMP_pressure;BME280_temperature;BME280_humidity;BME280_pressure;Samples;Min_cycle;Max_cycle;Signal;HPM_P1;HPM_P2
2022/03/08 00:00:23;;;;;;;;;6.00;6.00;;;;;;;;5095139;27;45479;-80
2022/03/08 00:02:48;;;;;;;;;6.75;6.75;;;;;;;;5096014;27;45348;-80
2022/03/08 00:05:14;;;;;;;;;6.75;6.25;;;;;;;;5099123;27;45932;-79
2022/03/08 00:07:39;;;;;;;;;7.75;7.75;;;;;;;;5098327;27;46828;-80
2022/03/08 00:10:06;;;;;;;;;8.00;7.50;;;;;;;;5099079;27;45321;-80
2022/03/08 00:12:32;;;;;;;;;7.00;7.00;;;;;;;;5080590;27;45293;-80
2022/03/08 00:14:57;;;;;;;;;7.75;7.75;;;;;;;;5103321;27;45538;-80
2022/03/08 00:17:22;;;;;;;;;8.50;8.50;;;;;;;;5099565;27;45256;-79
2022/03/08 00:19:47;;;;;;;;;7.00;7.00;;;;;;;;5098664;27;45277;-80
2022/03/08 00:22:13;;;;;;;;;5.50;5.50;;;;;;;;5098355;27;45356;-80
2022/03/08 00:24:38;;;;;;;;;5.25;5.25;;;;;;;;5098835;27;46007;-80
2022/03/08 00:27:04;;;;;;;;;8.50;7.00;;;;;;;;5098908;27;45431;-79
2022/03/08 00:29:29;;;;;;;;;7.00;7.00;;;;;;;;5099158;27;45393;-80
2022/03/08 00:31:54;;;;;;;;;7.25;7.25;;;;;;;;5098479;27;46446;-79
2022/03/08 00:34:19;;;;;;;;;8.50;7.00;;;;;;;;5098369;27;45298;-79
2022/03/08 00:36:45;;;;;;;;;11.50;9.00;;;;;;;;5097937;27;45314;-78
2022/03/08 00:39:10;;;;;;;;;8.00;7.75;;;;;;;;5097550;27;45490;-79
2022/03/08 00:41:35;;;;;;;;;8.75;8.75;;;;;;;;5099396;27;45281;-80
2022/03/08 00:44:00;;;;;;;;;6.00;5.75;;;;;;;;5097648;27;45904;-80
2022/03/08 00:46:25;;;;;;;;;5.75;5.75;;;;;;;;5097879;27;45321;-80
2022/03/08 00:48:51;;;;;;;;;8.00;7.00;;;;;;;;5098362;27;45451;-80
2022/03/08 00:51:16;;;;;;;;;10.50;9.00;;;;;;;;5101262;27;45650;-80
2022/03/08 00:53:41;;;;;;;;;6.50;6.50;;;;;;;;5104947;27;46348;-80
2022/03/08 00:56:06;;;;;;;;;8.50;7.75;;;;;;;;5098674;27;45334;-79
2022/03/08 00:58:34;;;;;;;;;7.25;6.50;;;;;;;;5079899;27;45452;-79
2022/03/08 01:00:59;;;;;;;;;8.25;8.25;;;;;;;;5097851;27;45449;-79
2022/03/08 01:03:24;;;;;;;;;7.75;7.00;;;;;;;;5097798;27;45614;-80
2022/03/08 01:05:49;;;;;;;;;2.75;2.75;;;;;;;;5105714;27;45485;-79
2022/03/08 01:08:15;;;;;;;;;9.00;8.50;;;;;;;;5097785;27;46038;-80
2022/03/08 01:10:40;;;;;;;;;9.75;6.75;;;;;;;;5098365;27;45334;-79
2022/03/08 01:13:05;;;;;;;;;9.50;7.00;;;;;;;;5097112;27;47301;-79
2022/03/08 01:15:31;;;;;;;;;8.75;7.50;;;;;;;;5097052;27;45475;-79
2022/03/08 01:17:56;;;;;;;;;7.50;7.50;;;;;;;;5081155;27;45408;-80
2022/03/08 01:20:22;;;;;;;;;8.50;8.50;;;;;;;;5098320;27;45528;-79
2022/03/08 01:22:47;;;;;;;;;8.00;8.00;;;;;;;;5096913;27;46452;-80
2022/03/08 01:25:14;;;;;;;;;8.50;7.50;;;;;;;;5096622;27;45437;-80
2022/03/08 01:27:39;;;;;;;;;7.25;7.25;;;;;;;;5097853;27;45306;-79
2022/03/08 01:30:06;;;;;;;;;8.25;6.00;;;;;;;;5098766;27;45396;-79
2022/03/08 01:32:31;;;;;;;;;7.00;6.00;;;;;;;;5098089;27;46678;-79
2022/03/08 01:34:56;;;;;;;;;7.00;7.00;;;;;;;;5097715;27;45344;-79
2022/03/08 01:37:21;;;;;;;;;9.50;8.25;;;;;;;;5101504;27;50461;-80
2022/03/08 01:39:47;;;;;;;;;9.00;9.00;;;;;;;;5107805;27;45409;-80
2022/03/08 01:42:13;;;;;;;;;8.50;8.50;;;;;;;;5097654;27;45389;-80
2022/03/08 01:44:42;;;;;;;;;6.75;6.75;;;;;;;;5098061;27;45295;-80
2022/03/08 01:47:11;;;;;;;;;8.25;8.25;;;;;;;;5096627;27;45370;-80
2022/03/08 01:49:36;;;;;;;;;6.50;6.50;;;;;;;;5097060;27;45481;-80
2022/03/08 01:52:02;;;;;;;;;9.25;9.00;;;;;;;;5099759;27;47239;-79
2022/03/08 01:54:27;;;;;;;;;6.25;6.25;;;;;;;;5096881;27;45379;-79
2022/03/08 01:56:52;;;;;;;;;8.00;8.00;;;;;;;;5097860;27;45595;-80
2022/03/08 01:59:17;;;;;;;;;10.50;10.00;;;;;;;;5097735;27;45431;-79
2022/03/08 02:01:43;;;;;;;;;10.00;8.00;;;;;;;;5096561;27;47176;-79
2022/03/08 02:04:08;;;;;;;;;8.25;8.25;;;;;;;;5095878;27;45512;-79
2022/03/08 02:06:33;;;;;;;;;8.00;8.00;;;;;;;;5096590;27;45408;-80
2022/03/08 02:08:58;;;;;;;;;7.75;7.75;;;;;;;;5097227;27;45384;-80
2022/03/08 02:11:24;;;;;;;;;10.00;8.25;;;;;;;;5097391;27;46076;-80
2022/03/08 02:13:49;;;;;;;;;7.25;6.50;;;;;;;;5096541;27;45433;-79
2022/03/08 02:16:14;;;;;;;;;8.00;8.00;;;;;;;;5096562;27;45449;-80
2022/03/08 02:18:40;;;;;;;;;6.75;6.75;;;;;;;;5096891;27;45479;-80
2022/03/08 02:21:05;;;;;;;;;7.00;7.00;;;;;;;;5096315;27;45974;-80
2022/03/08 02:23:31;;;;;;;;;10.50;9.50;;;;;;;;5097488;27;45423;-80
2022/03/08 02:25:56;;;;;;;;;9.25;7.75;;;;;;;;5104567;27;45496;-80
2022/03/08 02:28:22;;;;;;;;;7.50;5.75;;;;;;;;5103701;27;45487;-80
2022/03/08 02:30:47;;;;;;;;;7.00;7.00;;;;;;;;5097015;27;46415;-80
2022/03/08 02:33:12;;;;;;;;;8.25;8.00;;;;;;;;5097603;27;45370;-80
2022/03/08 02:35:37;;;;;;;;;11.75;9.50;;;;;;;;5096633;27;45336;-80
2022/03/08 02:38:04;;;;;;;;;9.00;9.00;;;;;;;;5096173;27;45411;-80
2022/03/08 02:40:34;;;;;;;;;8.75;8.00;;;;;;;;5096141;27;46089;-79
2022/03/08 02:42:59;;;;;;;;;7.75;7.75;;;;;;;;5095756;27;46863;-80
2022/03/08 02:45:25;;;;;;;;;9.00;9.00;;;;;;;;5095754;27;45530;-80
2022/03/08 02:47:50;;;;;;;;;6.75;6.00;;;;;;;;5080246;27;45510;-79
2022/03/08 02:50:16;;;;;;;;;9.00;8.00;;;;;;;;5095137;27;47268;-80
2022/03/08 02:52:42;;;;;;;;;8.00;8.00;;;;;;;;5094588;27;45305;-80
2022/03/08 02:55:09;;;;;;;;;10.00;8.00;;;;;;;;5094565;27;45322;-80
2022/03/08 02:57:34;;;;;;;;;7.00;7.00;;;;;;;;5098170;27;45468;-80
2022/03/08 02:59:59;;;;;;;;;8.75;7.75;;;;;;;;5097533;27;46020;-80
2022/03/08 03:02:24;;;;;;;;;7.00;7.00;;;;;;;;5095557;27;45346;-80
2022/03/08 03:04:49;;;;;;;;;8.00;8.00;;;;;;;;5094355;27;45441;-79
2022/03/08 03:07:15;;;;;;;;;8.75;7.00;;;;;;;;5094035;27;45186;-79
2022/03/08 03:09:40;;;;;;;;;8.25;7.25;;;;;;;;5094313;27;47086;-80
2022/03/08 03:12:06;;;;;;;;;8.50;8.50;;;;;;;;5094347;27;45288;-80
2022/03/08 03:14:31;;;;;;;;;6.75;6.00;;;;;;;;5095813;27;45324;-80
2022/03/08 03:16:56;;;;;;;;;5.75;5.50;;;;;;;;5089942;27;45481;-80
2022/03/08 03:19:21;;;;;;;;;7.50;6.50;;;;;;;;5093457;27;46870;-80
2022/03/08 03:21:47;;;;;;;;;8.00;7.00;;;;;;;;5095029;27;45385;-80
2022/03/08 03:24:12;;;;;;;;;8.00;6.75;;;;;;;;5094170;27;45488;-79
2022/03/08 03:26:37;;;;;;;;;10.75;8.50;;;;;;;;5095442;27;45468;-79
2022/03/08 03:29:03;;;;;;;;;11.25;10.00;;;;;;;;5093506;27;45922;-79
2022/03/08 03:31:28;;;;;;;;;10.00;7.75;;;;;;;;5094072;27;45454;-79
2022/03/08 03:33:53;;;;;;;;;6.75;6.75;;;;;;;;5105135;27;45540;-80
2022/03/08 03:36:18;;;;;;;;;10.25;9.00;;;;;;;;5094304;27;45618;-80
2022/03/08 03:38:43;;;;;;;;;8.25;7.50;;;;;;;;5094319;27;45463;-80
2022/03/08 03:41:09;;;;;;;;;10.75;8.00;;;;;;;;5082271;27;45404;-80
2022/03/08 03:43:34;;;;;;;;;6.00;6.00;;;;;;;;5088842;27;45526;-80
2022/03/08 03:46:00;;;;;;;;;10.00;8.00;;;;;;;;5092266;27;45378;-80
2022/03/08 03:48:25;;;;;;;;;7.75;7.75;;;;;;;;5082317;27;45996;-80
2022/03/08 03:50:50;;;;;;;;;9.25;9.25;;;;;;;;5047755;27;1336406;-79
2022/03/08 03:53:15;;;;;;;;;8.75;8.75;;;;;;;;5096264;27;46369;-80
2022/03/08 03:55:41;;;;;;;;;7.75;7.75;;;;;;;;5097385;27;45417;-80
2022/03/08 03:58:06;;;;;;;;;8.00;7.50;;;;;;;;5105273;27;47442;-80
2022/03/08 04:00:31;;;;;;;;;11.25;8.50;;;;;;;;5109556;27;45555;-80
2022/03/08 04:02:56;;;;;;;;;8.00;8.00;;;;;;;;5095084;27;45376;-80
2022/03/08 04:05:22;;;;;;;;;9.75;9.00;;;;;;;;5084848;27;45455;-80
2022/03/08 04:07:47;;;;;;;;;7.25;7.25;;;;;;;;5095061;27;45381;-80
2022/03/08 04:10:13;;;;;;;;;9.75;8.50;;;;;;;;5094858;27;45421;-79
2022/03/08 04:12:38;;;;;;;;;10.00;9.00;;;;;;;;5094670;27;45455;-80
2022/03/08 04:15:04;;;;;;;;;7.75;7.75;;;;;;;;5094940;27;45322;-80
2022/03/08 04:17:29;;;;;;;;;8.25;8.25;;;;;;;;5095441;27;47292;-80
2022/03/08 04:19:54;;;;;;;;;9.00;9.00;;;;;;;;5093368;27;45493;-80
2022/03/08 04:22:20;;;;;;;;;8.00;7.25;;;;;;;;5094495;27;46867;-79
2022/03/08 04:24:45;;;;;;;;;7.00;7.00;;;;;;;;5095033;27;45392;-80
2022/03/08 04:27:11;;;;;;;;;8.50;8.50;;;;;;;;5109550;27;47378;-80
2022/03/08 04:29:36;;;;;;;;;9.00;8.00;;;;;;;;5080685;27;45295;-80
2022/03/08 04:32:01;;;;;;;;;8.50;8.50;;;;;;;;5092810;27;45306;-79
2022/03/08 04:34:26;;;;;;;;;8.00;8.00;;;;;;;;5097450;27;45505;-80
2022/03/08 04:36:52;;;;;;;;;7.75;7.75;;;;;;;;5094873;27;47416;-79
2022/03/08 04:39:17;;;;;;;;;7.00;7.00;;;;;;;;5095172;27;45349;-80
2022/03/08 04:41:43;;;;;;;;;7.50;7.50;;;;;;;;5091015;27;45538;-80
2022/03/08 04:44:08;;;;;;;;;9.75;8.50;;;;;;;;5094708;27;45622;-79
2022/03/08 04:46:33;;;;;;;;;4.25;4.25;;;;;;;;5094070;27;45338;-79
2022/03/08 04:48:59;;;;;;;;;8.25;6.25;;;;;;;;5096160;27;45267;-79
2022/03/08 04:51:24;;;;;;;;;11.25;9.00;;;;;;;;5097991;27;45504;-80
2022/03/08 04:53:50;;;;;;;;;7.75;7.50;;;;;;;;5102346;27;45386;-80
2022/03/08 04:56:16;;;;;;;;;7.00;7.00;;;;;;;;5098176;27;45376;-80
2022/03/08 04:58:41;;;;;;;;;10.25;10.25;;;;;;;;5097312;27;45382;-80
2022/03/08 05:01:07;;;;;;;;;7.25;7.00;;;;;;;;5097128;27;45239;-80
2022/03/08 05:03:32;;;;;;;;;11.25;10.25;;;;;;;;5098273;27;45356;-80
2022/03/08 05:05:57;;;;;;;;;5.00;3.50;;;;;;;;5097897;27;46023;-80
2022/03/08 05:08:22;;;;;;;;;9.50;9.00;;;;;;;;5098573;27;45426;-80
2022/03/08 05:10:48;;;;;;;;;8.50;8.50;;;;;;;;5097644;27;45503;-80
2022/03/08 05:13:13;;;;;;;;;10.00;9.75;;;;;;;;5098175;27;45168;-79
2022/03/08 05:15:38;;;;;;;;;10.50;8.00;;;;;;;;5097019;27;46718;-79
2022/03/08 05:18:03;;;;;;;;;10.00;8.25;;;;;;;;5097809;27;45301;-80
2022/03/08 05:20:29;;;;;;;;;8.50;7.00;;;;;;;;5098528;27;45448;-79
2022/03/08 05:22:54;;;;;;;;;8.50;8.50;;;;;;;;5097404;27;45572;-79
2022/03/08 05:25:20;;;;;;;;;9.75;9.25;;;;;;;;5100050;27;47057;-80
2022/03/08 05:27:45;;;;;;;;;10.25;10.25;;;;;;;;5099737;27;45227;-80
2022/03/08 05:30:10;;;;;;;;;9.00;8.75;;;;;;;;5097738;27;45601;-80
2022/03/08 05:32:36;;;;;;;;;9.00;8.50;;;;;;;;5098352;27;45262;-80
2022/03/08 05:35:01;;;;;;;;;7.75;7.75;;;;;;;;5097139;27;46286;-80
2022/03/08 05:37:26;;;;;;;;;8.25;8.00;;;;;;;;5097796;27;45410;-80
2022/03/08 05:39:51;;;;;;;;;9.00;8.00;;;;;;;;5096886;27;45492;-80
2022/03/08 05:42:16;;;;;;;;;8.25;8.25;;;;;;;;5096878;27;45546;-80
2022/03/08 05:44:42;;;;;;;;;7.75;7.75;;;;;;;;5102295;27;46422;-80
2022/03/08 05:47:07;;;;;;;;;6.75;6.75;;;;;;;;5098086;27;45387;-80
2022/03/08 05:49:32;;;;;;;;;7.25;7.25;;;;;;;;5100108;27;45339;-79
2022/03/08 05:51:57;;;;;;;;;11.75;11.50;;;;;;;;5096818;27;45488;-79
2022/03/08 05:54:23;;;;;;;;;6.75;6.50;;;;;;;;5096766;27;47251;-80
2022/03/08 05:56:48;;;;;;;;;9.50;6.75;;;;;;;;5097155;27;45408;-80
2022/03/08 05:59:13;;;;;;;;;10.00;9.00;;;;;;;;5097530;27;45503;-80
2022/03/08 06:01:39;;;;;;;;;10.25;9.25;;;;;;;;5096379;27;45519;-80
2022/03/08 06:04:05;;;;;;;;;9.00;8.75;;;;;;;;5105964;27;45763;-80
2022/03/08 06:06:30;;;;;;;;;8.50;8.50;;;;;;;;5096762;27;45495;-79
2022/03/08 06:08:55;;;;;;;;;8.75;8.25;;;;;;;;5096770;27;45403;-80
2022/03/08 06:11:20;;;;;;;;;10.00;10.00;;;;;;;;5106600;27;45402;-80
2022/03/08 06:13:45;;;;;;;;;7.75;7.75;;;;;;;;5096766;27;47277;-80
2022/03/08 06:16:13;;;;;;;;;11.25;9.50;;;;;;;;5096041;27;45506;-80
2022/03/08 06:18:38;;;;;;;;;7.00;7.00;;;;;;;;5096891;27;45359;-80
2022/03/08 06:21:03;;;;;;;;;8.50;7.50;;;;;;;;5107785;27;45296;-79
2022/03/08 06:23:28;;;;;;;;;7.00;7.00;;;;;;;;5079184;27;46200;-80
2022/03/08 06:25:54;;;;;;;;;7.25;7.25;;;;;;;;5095691;27;45366;-79
2022/03/08 06:28:19;;;;;;;;;11.75;11.25;;;;;;;;5097187;27;45445;-79
2022/03/08 06:30:44;;;;;;;;;13.25;11.50;;;;;;;;5096145;27;45969;-79
2022/03/08 06:33:10;;;;;;;;;7.75;7.25;;;;;;;;5095996;27;46220;-79
2022/03/08 06:35:35;;;;;;;;;10.00;9.00;;;;;;;;5078998;27;45534;-79
2022/03/08 06:38:01;;;;;;;;;9.00;9.00;;;;;;;;5096677;27;45468;-79
2022/03/08 06:40:26;;;;;;;;;10.75;9.25;;;;;;;;5095689;27;45560;-79
2022/03/08 06:42:51;;;;;;;;;10.00;9.50;;;;;;;;5096592;27;47190;-79
2022/03/08 06:45:16;;;;;;;;;10.00;8.75;;;;;;;;5096721;27;45432;-79
2022/03/08 06:47:42;;;;;;;;;11.50;9.75;;;;;;;;5097133;27;45344;-79
2022/03/08 06:50:07;;;;;;;;;10.25;8.75;;;;;;;;5075418;27;45434;-79
2022/03/08 06:52:33;;;;;;;;;10.25;8.50;;;;;;;;5095643;27;45401;-77
2022/03/08 06:54:58;;;;;;;;;9.25;8.25;;;;;;;;5099793;27;45829;-79
2022/03/08 06:57:24;;;;;;;;;9.50;8.00;;;;;;;;5097005;27;45385;-79
2022/03/08 06:59:49;;;;;;;;;9.75;9.00;;;;;;;;5096245;27;45588;-79
2022/03/08 07:02:14;;;;;;;;;7.00;7.00;;;;;;;;5096363;27;45359;-77
2022/03/08 07:04:39;;;;;;;;;11.50;10.00;;;;;;;;5095409;27;45309;-75
2022/03/08 07:07:05;;;;;;;;;8.50;8.50;;;;;;;;5096432;27;45342;-74
2022/03/08 07:09:30;;;;;;;;;7.75;6.75;;;;;;;;5097344;27;45543;-76
2022/03/08 07:11:55;;;;;;;;;9.75;8.00;;;;;;;;5082031;27;48003;-77
2022/03/08 07:14:20;;;;;;;;;10.25;9.00;;;;;;;;5099319;27;45430;-76
2022/03/08 07:16:46;;;;;;;;;11.00;8.00;;;;;;;;5095246;27;45609;-77
2022/03/08 07:19:13;;;;;;;;;8.75;7.75;;;;;;;;5079495;27;45302;-76
2022/03/08 07:21:38;;;;;;;;;8.25;8.25;;;;;;;;5094989;27;46915;-77
2022/03/08 07:24:03;;;;;;;;;8.00;8.00;;;;;;;;5095293;27;46371;-74
2022/03/08 07:26:29;;;;;;;;;8.50;7.25;;;;;;;;5104609;27;45495;-77
2022/03/08 07:28:54;;;;;;;;;10.50;9.50;;;;;;;;5098801;27;45455;-77
2022/03/08 07:31:19;;;;;;;;;10.75;10.75;;;;;;;;5095499;27;45419;-77
2022/03/08 07:33:44;;;;;;;;;10.00;10.00;;;;;;;;5095733;27;45297;-76
2022/03/08 07:36:10;;;;;;;;;10.50;7.00;;;;;;;;5095956;27;45529;-73
2022/03/08 07:38:35;;;;;;;;;9.00;8.25;;;;;;;;5096396;27;45237;-77
2022/03/08 07:41:04;;;;;;;;;8.75;7.50;;;;;;;;5095325;27;46554;-73
2022/03/08 07:43:29;;;;;;;;;9.50;9.50;;;;;;;;5095501;27;45490;-73
2022/03/08 07:45:54;;;;;;;;;9.25;9.25;;;;;;;;5095441;27;45759;-73
2022/03/08 07:48:20;;;;;;;;;8.25;8.25;;;;;;;;5095510;27;45498;-73
2022/03/08 07:50:45;;;;;;;;;8.00;8.00;;;;;;;;5096054;27;47196;-73
2022/03/08 07:53:10;;;;;;;;;7.75;7.75;;;;;;;;5095162;27;45401;-73
2022/03/08 07:55:35;;;;;;;;;9.00;8.75;;;;;;;;5095715;27;45374;-73
2022/03/08 07:58:01;;;;;;;;;9.00;7.25;;;;;;;;5095433;27;45332;-73
2022/03/08 08:00:27;;;;;;;;;11.00;9.50;;;;;;;;5095552;27;46964;-73
2022/03/08 08:02:52;;;;;;;;;7.50;7.50;;;;;;;;5095973;27;45359;-73
2022/03/08 08:05:18;;;;;;;;;12.25;8.75;;;;;;;;5095659;27;47790;-73
2022/03/08 08:07:43;;;;;;;;;8.00;8.00;;;;;;;;5095170;27;45518;-73
2022/03/08 08:10:09;;;;;;;;;6.50;6.50;;;;;;;;5095179;27;46056;-73
2022/03/08 08:12:35;;;;;;;;;10.25;9.25;;;;;;;;5094806;27;45482;-73
2022/03/08 08:15:00;;;;;;;;;10.00;9.00;;;;;;;;5094604;27;45382;-73
2022/03/08 08:17:25;;;;;;;;;10.25;8.25;;;;;;;;5095548;27;45329;-73
2022/03/08 08:19:50;;;;;;;;;10.25;9.50;;;;;;;;5094441;27;45450;-73
2022/03/08 08:22:15;;;;;;;;;10.50;10.00;;;;;;;;5094540;27;46334;-73
2022/03/08 08:24:41;;;;;;;;;8.50;8.50;;;;;;;;5096387;27;45401;-73
2022/03/08 08:27:06;;;;;;;;;8.75;8.00;;;;;;;;5098335;27;45353;-73
2022/03/08 08:29:31;;;;;;;;;8.00;8.00;;;;;;;;5099126;27;45471;-73
2022/03/08 08:31:57;;;;;;;;;9.00;9.00;;;;;;;;5098139;27;45395;-73
2022/03/08 08:34:22;;;;;;;;;8.50;8.00;;;;;;;;5098382;27;45532;-73
2022/03/08 08:36:47;;;;;;;;;9.75;8.00;;;;;;;;5097349;27;45433;-73
2022/03/08 08:39:14;;;;;;;;;9.00;8.75;;;;;;;;5098165;27;46301;-73
2022/03/08 08:41:39;;;;;;;;;8.75;8.75;;;;;;;;5099152;27;45329;-73
2022/03/08 08:44:05;;;;;;;;;8.25;8.25;;;;;;;;5098180;27;45413;-73
2022/03/08 08:46:30;;;;;;;;;9.25;8.00;;;;;;;;5098255;27;45560;-73
2022/03/08 08:48:55;;;;;;;;;8.50;8.50;;;;;;;;5097995;27;46281;-73
2022/03/08 08:51:20;;;;;;;;;8.75;8.75;;;;;;;;5097597;27;45333;-73
2022/03/08 08:53:45;;;;;;;;;8.00;8.00;;;;;;;;5098836;27;45257;-74
2022/03/08 08:56:11;;;;;;;;;8.50;8.50;;;;;;;;5097685;27;49235;-73
2022/03/08 08:58:36;;;;;;;;;9.00;8.00;;;;;;;;5097689;27;46361;-73
2022/03/08 09:01:01;;;;;;;;;8.50;8.00;;;;;;;;5097113;27;45421;-73
2022/03/08 09:03:26;;;;;;;;;10.25;9.00;;;;;;;;5097875;27;45433;-73
2022/03/08 09:05:51;;;;;;;;;6.75;6.75;;;;;;;;5097578;27;45432;-73
2022/03/08 09:08:23;;;;;;;;;8.00;7.75;;;;;;;;5097609;27;46274;-73
2022/03/08 09:10:49;;;;;;;;;10.75;10.50;;;;;;;;5097610;27;45357;-73
2022/03/08 09:13:14;;;;;;;;;9.50;8.75;;;;;;;;5097819;27;45472;-73
2022/03/08 09:15:39;;;;;;;;;10.75;9.00;;;;;;;;5097635;27;45440;-73
2022/03/08 09:18:07;;;;;;;;;9.50;8.00;;;;;;;;5081313;27;47548;-73
2022/03/08 09:20:32;;;;;;;;;7.00;7.00;;;;;;;;5098073;27;45527;-73
2022/03/08 09:22:57;;;;;;;;;8.00;8.00;;;;;;;;5096937;27;45448;-73
2022/03/08 09:25:22;;;;;;;;;8.75;8.75;;;;;;;;5097395;27;45408;-73
2022/03/08 09:27:48;;;;;;;;;14.50;11.00;;;;;;;;5097207;27;46239;-73
2022/03/08 09:30:13;;;;;;;;;9.00;8.00;;;;;;;;5097835;27;45346;-73
2022/03/08 09:32:38;;;;;;;;;8.25;8.25;;;;;;;;5098296;27;45369;-73
2022/03/08 09:35:04;;;;;;;;;11.25;10.25;;;;;;;;5086013;27;45406;-73
2022/03/08 09:37:29;;;;;;;;;8.00;8.00;;;;;;;;5095148;27;45640;-73
2022/03/08 09:39:55;;;;;;;;;8.00;8.00;;;;;;;;5097054;27;45449;-73
2022/03/08 09:42:20;;;;;;;;;9.25;9.00;;;;;;;;5097023;27;45316;-73
2022/03/08 09:44:48;;;;;;;;;10.25;9.00;;;;;;;;5098600;27;45492;-73
2022/03/08 09:47:13;;;;;;;;;9.75;9.50;;;;;;;;5085126;27;46493;-73
2022/03/08 09:49:39;;;;;;;;;9.25;9.00;;;;;;;;5094395;27;45382;-73
2022/03/08 09:52:04;;;;;;;;;8.75;8.75;;;;;;;;5097044;27;45460;-73
2022/03/08 09:54:29;;;;;;;;;6.00;6.00;;;;;;;;5096889;27;45382;-73
2022/03/08 09:56:54;;;;;;;;;11.50;9.00;;;;;;;;5096694;27;47071;-73
2022/03/08 09:59:20;;;;;;;;;7.00;6.25;;;;;;;;5092805;27;45354;-73
2022/03/08 10:01:45;;;;;;;;;8.50;8.50;;;;;;;;5096405;27;45828;-73
2022/03/08 10:04:15;;;;;;;;;10.75;9.75;;;;;;;;5093642;27;45552;-73
2022/03/08 10:06:41;;;;;;;;;12.00;10.25;;;;;;;;5083643;27;45984;-73
2022/03/08 10:09:13;;;;;;;;;10.00;6.00;;;;;;;;5096050;27;46473;-73
2022/03/08 10:11:39;;;;;;;;;9.75;9.50;;;;;;;;5097623;27;45533;-73
2022/03/08 10:14:04;;;;;;;;;10.00;10.00;;;;;;;;5096079;27;45432;-73
2022/03/08 10:16:41;;;;;;;;;10.00;7.75;;;;;;;;5096189;27;47148;-73
2022/03/08 10:19:08;;;;;;;;;8.00;8.00;;;;;;;;5096246;27;45597;-73
2022/03/08 10:21:43;;;;;;;;;8.75;8.75;;;;;;;;5096218;27;45473;-73
2022/03/08 10:24:22;;;;;;;;;9.75;9.75;;;;;;;;5096089;27;45291;-73
2022/03/08 10:26:47;;;;;;;;;10.00;10.00;;;;;;;;5093531;27;45356;-73
2022/03/08 10:29:13;;;;;;;;;8.50;8.50;;;;;;;;5096086;27;45599;-73
2022/03/08 10:31:38;;;;;;;;;10.00;8.50;;;;;;;;5096373;27;45496;-73
2022/03/08 10:34:05;;;;;;;;;10.75;9.50;;;;;;;;5096174;27;45517;-73
2022/03/08 10:36:31;;;;;;;;;10.75;10.00;;;;;;;;5096100;27;46213;-73
2022/03/08 10:39:02;;;;;;;;;9.00;8.75;;;;;;;;5078343;27;45347;-73
2022/03/08 10:41:28;;;;;;;;;9.50;8.75;;;;;;;;5096890;27;45370;-73
2022/03/08 10:43:55;;;;;;;;;9.25;9.25;;;;;;;;5095790;27;45598;-73
2022/03/08 10:46:20;;;;;;;;;11.75;10.25;;;;;;;;5095237;27;45454;-73
2022/03/08 10:48:46;;;;;;;;;8.75;8.75;;;;;;;;5095853;27;45358;-73
2022/03/08 10:51:14;;;;;;;;;10.00;9.25;;;;;;;;5096511;27;45594;-76
2022/03/08 10:53:40;;;;;;;;;10.25;10.00;;;;;;;;5096152;27;45335;-73
2022/03/08 10:56:07;;;;;;;;;12.00;10.25;;;;;;;;5095594;27;45820;-72
2022/03/08 10:58:32;;;;;;;;;11.00;9.75;;;;;;;;5095528;27;45470;-73
2022/03/08 11:00:59;;;;;;;;;8.75;8.25;;;;;;;;5095841;27;45413;-73
2022/03/08 11:03:25;;;;;;;;;9.25;9.25;;;;;;;;5096043;27;45553;-76
2022/03/08 11:05:53;;;;;;;;;12.25;11.25;;;;;;;;5096253;27;46176;-75
2022/03/08 11:08:19;;;;;;;;;11.50;10.75;;;;;;;;5095970;27;45485;-75
2022/03/08 11:10:44;;;;;;;;;11.75;11.25;;;;;;;;5095576;27;45508;-75
2022/03/08 11:13:10;;;;;;;;;10.00;10.00;;;;;;;;5095384;27;45605;-75
2022/03/08 11:15:37;;;;;;;;;11.00;11.00;;;;;;;;5095707;27;46022;-75
2022/03/08 11:18:04;;;;;;;;;13.00;11.00;;;;;;;;5079300;27;45325;-75
2022/03/08 11:20:29;;;;;;;;;8.50;8.50;;;;;;;;5094448;27;45476;-76
2022/03/08 11:22:55;;;;;;;;;10.50;9.75;;;;;;;;5095425;27;45207;-75
2022/03/08 11:25:22;;;;;;;;;12.50;10.00;;;;;;;;5095567;27;46252;-75
2022/03/08 11:27:47;;;;;;;;;13.00;11.50;;;;;;;;5095797;27;45531;-72
2022/03/08 11:30:15;;;;;;;;;9.00;9.00;;;;;;;;5095835;27;45413;-73
2022/03/08 11:32:57;;;;;;;;;11.00;11.00;;;;;;;;5096372;27;45331;-73
2022/03/08 11:35:23;;;;;;;;;11.00;9.75;;;;;;;;5095178;27;46225;-75
2022/03/08 11:37:49;;;;;;;;;12.00;11.00;;;;;;;;5095324;27;45455;-75
2022/03/08 11:40:15;;;;;;;;;12.50;11.25;;;;;;;;5094933;27;45479;-75
2022/03/08 11:42:45;;;;;;;;;11.75;11.25;;;;;;;;5095284;27;45434;-73
2022/03/08 11:45:12;;;;;;;;;11.75;11.25;;;;;;;;5095075;27;46183;-72
2022/03/08 11:47:44;;;;;;;;;15.25;12.50;;;;;;;;5096021;27;45316;-75
2022/03/08 11:50:18;;;;;;;;;10.50;10.50;;;;;;;;5094628;27;45456;-75
2022/03/08 11:52:43;;;;;;;;;11.75;11.00;;;;;;;;5095073;27;48013;-76
2022/03/08 11:55:10;;;;;;;;;11.50;11.50;;;;;;;;5094696;27;46191;-75
2022/03/08 11:57:47;;;;;;;;;11.25;11.25;;;;;;;;5094275;27;45478;-75
2022/03/08 12:00:17;;;;;;;;;9.50;9.00;;;;;;;;5097391;27;45323;-75
2022/03/08 12:02:46;;;;;;;;;12.00;11.50;;;;;;;;5099731;27;45482;-75
2022/03/08 12:05:30;;;;;;;;;11.50;10.00;;;;;;;;5098358;27;47223;-75
2022/03/08 12:07:55;;;;;;;;;11.75;10.75;;;;;;;;5098347;27;45454;-75
2022/03/08 12:10:24;;;;;;;;;10.00;10.00;;;;;;;;5099130;27;45559;-75
2022/03/08 12:12:52;;;;;;;;;14.75;11.50;;;;;;;;5099101;27;45368;-74
2022/03/08 12:15:17;;;;;;;;;12.75;12.25;;;;;;;;5097912;27;47281;-74
2022/03/08 12:18:02;;;;;;;;;10.50;10.50;;;;;;;;5099585;27;45451;-75
2022/03/08 12:20:28;;;;;;;;;10.00;10.00;;;;;;;;5098797;27;45491;-75
2022/03/08 12:23:07;;;;;;;;;9.25;8.75;;;;;;;;5097876;27;45613;-74
2022/03/08 12:25:32;;;;;;;;;9.00;9.00;;;;;;;;5098306;27;45349;-74
2022/03/08 12:27:58;;;;;;;;;12.00;11.00;;;;;;;;5098157;27;45425;-74
2022/03/08 12:30:40;;;;;;;;;13.50;12.00;;;;;;;;5098308;27;46012;-74
2022/03/08 12:33:05;;;;;;;;;13.50;11.50;;;;;;;;5098906;27;45344;-74
2022/03/08 12:35:31;;;;;;;;;11.00;11.00;;;;;;;;5098668;27;45590;-75
2022/03/08 12:37:58;;;;;;;;;15.00;12.50;;;;;;;;5097462;27;45403;-75
2022/03/08 12:40:26;;;;;;;;;9.75;8.25;;;;;;;;5097897;27;45427;-74
2022/03/08 12:42:55;;;;;;;;;11.75;11.25;;;;;;;;5097753;27;49175;-74
2022/03/08 12:45:37;;;;;;;;;12.50;10.25;;;;;;;;5094195;27;46992;-75
2022/03/08 12:48:07;;;;;;;;;14.00;12.00;;;;;;;;5096312;27;45255;-74
2022/03/08 12:50:34;;;;;;;;;12.00;10.50;;;;;;;;5094037;27;45285;-75
2022/03/08 12:53:00;;;;;;;;;10.75;9.25;;;;;;;;5070232;28;45479;-75
2022/03/08 12:55:36;;;;;;;;;11.25;10.25;;;;;;;;5090966;27;46933;-75
2022/03/08 12:58:05;;;;;;;;;13.50;10.50;;;;;;;;5096897;27;45361;-74
2022/03/08 13:00:40;;;;;;;;;11.25;10.25;;;;;;;;5097424;27;48187;-75
2022/03/08 13:03:15;;;;;;;;;11.75;11.75;;;;;;;;5097959;27;45654;-74
2022/03/08 13:05:42;;;;;;;;;12.00;10.50;;;;;;;;5098382;27;45447;-74
2022/03/08 13:08:07;;;;;;;;;11.25;10.50;;;;;;;;5097129;27;45397;-74
2022/03/08 13:10:33;;;;;;;;;11.25;10.50;;;;;;;;5091446;27;45478;-75
2022/03/08 13:13:03;;;;;;;;;13.00;11.00;;;;;;;;5086900;27;45537;-75
2022/03/08 13:15:29;;;;;;;;;12.50;11.50;;;;;;;;5097511;27;46559;-74
2022/03/08 13:17:55;;;;;;;;;13.25;11.25;;;;;;;;5097750;27;45470;-74
2022/03/08 13:20:24;;;;;;;;;12.25;10.50;;;;;;;;5097914;27;45690;-74
2022/03/08 13:22:50;;;;;;;;;10.75;10.00;;;;;;;;5097334;27;45607;-75
2022/03/08 13:25:15;;;;;;;;;14.00;13.00;;;;;;;;5093830;27;46069;-74
2022/03/08 13:27:54;;;;;;;;;13.50;10.75;;;;;;;;5083708;27;45488;-74
2022/03/08 13:30:22;;;;;;;;;10.25;10.25;;;;;;;;5081765;27;45434;-75
2022/03/08 13:32:48;;;;;;;;;14.00;12.25;;;;;;;;5098584;27;45503;-74
2022/03/08 13:35:13;;;;;;;;;12.50;11.25;;;;;;;;5097257;27;47020;-74
2022/03/08 13:37:50;;;;;;;;;12.75;12.50;;;;;;;;5097067;27;45597;-74
2022/03/08 13:40:25;;;;;;;;;12.00;12.00;;;;;;;;5097238;27;45425;-75
2022/03/08 13:42:51;;;;;;;;;12.25;10.50;;;;;;;;5097108;27;45525;-74
2022/03/08 13:45:16;;;;;;;;;12.00;10.75;;;;;;;;5096838;27;45981;-74
2022/03/08 13:47:41;;;;;;;;;15.00;15.00;;;;;;;;5098021;27;45404;-74
2022/03/08 13:50:07;;;;;;;;;14.50;12.00;;;;;;;;5096998;27;45225;-74
2022/03/08 13:52:33;;;;;;;;;11.00;10.50;;;;;;;;5097101;27;45318;-74
2022/03/08 13:54:59;;;;;;;;;14.50;12.50;;;;;;;;5096292;27;46414;-74
2022/03/08 13:57:24;;;;;;;;;13.00;10.50;;;;;;;;5096300;27;45311;-74
2022/03/08 13:59:49;;;;;;;;;14.50;10.75;;;;;;;;5098284;27;45315;-74
2022/03/08 14:02:15;;;;;;;;;13.50;10.25;;;;;;;;5085013;27;45202;-74
2022/03/08 14:04:40;;;;;;;;;13.75;13.50;;;;;;;;5084677;27;46304;-74
2022/03/08 14:07:05;;;;;;;;;12.25;12.25;;;;;;;;5095711;27;45474;-75
2022/03/08 14:09:31;;;;;;;;;13.00;11.25;;;;;;;;5097706;27;45390;-75
2022/03/08 14:11:58;;;;;;;;;13.00;10.50;;;;;;;;5096421;27;45204;-75
2022/03/08 14:14:26;;;;;;;;;14.00;12.50;;;;;;;;5097499;27;46133;-73
2022/03/08 14:16:52;;;;;;;;;9.50;9.50;;;;;;;;5087529;27;45439;-75
2022/03/08 14:19:19;;;;;;;;;12.75;12.00;;;;;;;;5088780;27;45445;-75
2022/03/08 14:21:45;;;;;;;;;13.25;13.25;;;;;;;;5095044;27;45485;-74
2022/03/08 14:24:15;;;;;;;;;15.25;11.00;;;;;;;;5096253;27;45324;-75
2022/03/08 14:26:56;;;;;;;;;10.00;10.00;;;;;;;;5097667;27;45376;-74